Time;durP1;ratioP1;P1;durP2;ratioP2;P2;SDS_P1;SDS_P2;PMS_P1;PMS_P2;Temp;Humidity;BMP_temperature;BMP_pressure;BME280_temperature;BME280_humidity;BME280_pressure;Samples;Min_cycle;Max_cycle;Signal;HPM_P1;HPM_P2
2023/04/13 00:00:35;;;;;;;0.25;0.00;;;7.50;99.90;;;;;;5072393;28;20040;-56
2023/04/13 00:03:03;;;;;;;0.10;0.10;;;7.50;99.90;;;;;;5076197;28;20087;-52
2023/04/13 00:05:30;;;;;;;0.10;0.05;;;7.50;99.90;;;;;;5077568;28;20040;-52
2023/04/13 00:08:01;;;;;;;0.73;0.22;;;7.50;99.90;;;;;;5074972;28;20056;-54
2023/04/13 00:10:40;;;;;;;0.28;0.13;;;7.50;99.90;;;;;;5084872;28;20064;-52
2023/04/13 00:13:09;;;;;;;0.10;0.10;;;7.50;99.90;;;;;;5078357;28;20216;-53
2023/04/13 00:15:40;;;;;;;0.55;0.17;;;7.50;99.90;;;;;;5084080;28;20397;-52
2023/04/13 00:18:09;;;;;;;0.13;0.08;;;7.50;99.90;;;;;;5081836;28;20532;-53
2023/04/13 00:20:36;;;;;;;2.92;0.20;;;7.50;99.90;;;;;;5081017;28;20059;-51
2023/04/13 00:23:03;;;;;;;;;;;7.60;99.90;;;;;;5100305;28;20450;-53
2023/04/13 00:25:30;;;;;;;0.10;0.10;;;7.60;99.90;;;;;;5112408;28;19963;-52
2023/04/13 00:27:56;;;;;;;0.10;0.10;;;7.50;99.90;;;;;;5112295;28;20086;-53
2023/04/13 00:30:27;;;;;;;0.63;0.30;;;7.60;99.90;;;;;;5105831;28;20032;-53
2023/04/13 00:32:55;;;;;;;0.20;0.20;;;7.50;99.90;;;;;;5090648;28;20467;-52
2023/04/13 00:35:25;;;;;;;1.00;0.13;;;7.50;99.90;;;;;;5074073;28;20051;-54
2023/04/13 00:37:52;;;;;;;2.38;0.10;;;7.50;99.90;;;;;;5072584;28;20048;-54
2023/04/13 00:40:19;;;;;;;0.50;0.10;;;7.50;99.90;;;;;;5112140;28;20092;-54
2023/04/13 00:42:48;;;;;;;0.03;0.03;;;7.50;99.90;;;;;;5092867;28;20059;-53
2023/04/13 00:45:16;;;;;;;1.67;0.20;;;7.40;99.90;;;;;;5112714;28;20044;-52
2023/04/13 00:47:46;;;;;;;0.30;0.10;;;7.40;99.90;;;;;;5107078;28;20047;-56
2023/04/13 00:50:15;;;;;;;0.52;0.10;;;7.30;99.90;;;;;;5093581;28;20047;-54
2023/04/13 00:52:43;;;;;;;0.50;0.38;;;7.20;99.90;;;;;;5111824;28;20027;-55
2023/04/13 00:55:11;;;;;;;1.42;0.57;;;7.20;99.90;;;;;;5102573;28;20036;-54
2023/04/13 00:57:39;;;;;;;0.75;0.50;;;7.20;99.90;;;;;;5104645;28;20044;-52
2023/04/13 01:00:11;;;;;;;0.52;0.30;;;7.20;99.90;;;;;;5093258;28;20564;-51
2023/04/13 01:02:41;;;;;;;0.77;0.40;;;7.20;99.90;;;;;;5111876;28;20054;-50
2023/04/13 01:05:11;;;;;;;0.52;0.30;;;7.30;99.90;;;;;;5106761;28;20039;-55
2023/04/13 01:07:46;;;;;;;0.40;0.30;;;7.30;99.90;;;;;;5090404;28;20053;-52
2023/04/13 01:10:41;;;;;;;0.73;0.30;;;7.30;99.90;;;;;;5110316;28;20040;-53
2023/04/13 01:13:36;;;;;;;0.22;0.20;;;7.30;99.90;;;;;;5088649;28;20043;-52
2023/04/13 01:16:15;;;;;;;0.43;0.20;;;7.30;99.90;;;;;;5107194;28;20047;-54
2023/04/13 01:18:47;;;;;;;1.55;0.10;;;7.30;99.90;;;;;;5110248;28;20032;-51
2023/04/13 01:21:18;;;;;;;2.95;0.28;;;7.20;99.90;;;;;;5093757;28;20458;-52
2023/04/13 01:24:07;;;;;;;0.75;0.20;;;7.20;99.90;;;;;;5082720;28;20063;-52
2023/04/13 01:26:49;;;;;;;1.63;0.10;;;7.20;99.90;;;;;;5111998;28;20040;-54
2023/04/13 01:29:16;;;;;;;0.47;0.20;;;7.20;99.90;;;;;;5093340;28;20051;-54
2023/04/13 01:31:43;;;;;;;0.45;0.20;;;7.20;99.90;;;;;;5083810;28;20137;-52
2023/04/13 01:34:10;;;;;;;0.10;0.10;;;7.20;99.90;;;;;;5091747;28;20134;-52
2023/04/13 01:36:39;;;;;;;0.55;0.30;;;7.10;99.90;;;;;;5092534;28;20449;-53
2023/04/13 01:39:06;;;;;;;0.20;0.20;;;7.10;99.90;;;;;;5093206;28;20035;-53
2023/04/13 01:41:34;;;;;;;0.20;0.20;;;6.90;99.90;;;;;;5080990;28;20040;-54
2023/04/13 01:44:01;;;;;;;0.10;0.10;;;6.80;99.90;;;;;;5093508;28;20080;-55
2023/04/13 01:46:33;;;;;;;0.00;0.00;;;6.70;99.90;;;;;;5086221;28;20044;-52
2023/04/13 01:49:17;;;;;;;0.38;0.08;;;6.70;99.90;;;;;;5093169;28;20093;-51
2023/04/13 01:52:04;;;;;;;0.75;0.10;;;6.70;99.90;;;;;;5111063;28;20173;-52
2023/04/13 01:54:35;;;;;;;0.10;0.10;;;6.60;99.90;;;;;;5087526;28;20135;-51
2023/04/13 01:57:03;;;;;;;1.40;0.00;;;6.40;99.90;;;;;;5094624;28;20043;-53
2023/04/13 01:59:32;;;;;;;0.38;0.10;;;6.30;99.90;;;;;;5096712;28;20332;-54
2023/04/13 02:01:59;;;;;;;0.20;0.10;;;6.10;99.90;;;;;;5094107;28;20516;-56
2023/04/13 02:04:27;;;;;;;0.55;0.10;;;5.90;99.90;;;;;;5065110;28;20048;-52
2023/04/13 02:06:53;;;;;;;0.08;0.00;;;5.80;99.90;;;;;;5072571;28;20048;-52
2023/04/13 02:09:28;;;;;;;0.10;0.10;;;5.80;99.90;;;;;;5096765;28;20043;-53
2023/04/13 02:11:55;;;;;;;1.95;0.00;;;5.70;99.90;;;;;;5096721;28;20035;-51
2023/04/13 02:14:21;;;;;;;0.10;0.10;;;5.70;99.90;;;;;;5088564;28;20047;-53
2023/04/13 02:16:49;;;;;;;0.10;0.00;;;5.70;99.90;;;;;;5113835;22;20222;-52
2023/04/13 02:19:16;;;;;;;0.65;0.10;;;5.70;99.90;;;;;;5092493;28;20048;-49
2023/04/13 02:21:42;;;;;;;0.10;0.10;;;5.70;99.90;;;;;;5096333;28;20421;-49
2023/04/13 02:24:10;;;;;;;0.32;0.00;;;5.70;99.90;;;;;;5095231;28;20054;-48
2023/04/13 02:26:37;;;;;;;0.00;0.00;;;5.60;99.90;;;;;;5096761;28;20051;-49
2023/04/13 02:29:04;;;;;;;0.00;0.00;;;5.70;99.90;;;;;;5075877;28;20052;-49
2023/04/13 02:31:32;;;;;;;0.10;0.00;;;5.70;99.90;;;;;;5069366;28;20048;-48
2023/04/13 02:33:59;;;;;;;0.43;0.10;;;5.70;99.90;;;;;;5090389;28;20050;-49
2023/04/13 02:36:28;;;;;;;0.43;0.10;;;5.70;99.90;;;;;;5075553;28;20657;-48
2023/04/13 02:38:59;;;;;;;0.25;0.10;;;5.80;99.90;;;;;;5074661;28;20032;-50
2023/04/13 02:41:31;;;;;;;0.35;0.30;;;5.80;99.90;;;;;;5075732;28;20040;-50
2023/04/13 02:43:58;;;;;;;0.28;0.10;;;5.80;99.90;;;;;;5071584;28;20040;-50
2023/04/13 02:46:28;;;;;;;0.20;0.00;;;5.80;99.90;;;;;;5073050;28;20044;-50
2023/04/13 02:49:04;;;;;;;0.00;0.00;;;5.80;99.90;;;;;;5073835;28;20081;-54
2023/04/13 02:51:38;;;;;;;0.00;0.00;;;5.80;99.90;;;;;;5072501;28;20051;-52
2023/04/13 02:54:09;;;;;;;0.20;0.00;;;5.70;99.90;;;;;;5072713;28;20040;-51
2023/04/13 02:56:38;;;;;;;0.60;0.10;;;5.80;99.90;;;;;;5075079;28;20036;-53
2023/04/13 02:59:05;;;;;;;1.08;0.17;;;5.70;99.90;;;;;;5074226;28;20127;-50
2023/04/13 03:01:32;;;;;;;0.20;0.05;;;5.70;99.90;;;;;;5094235;28;20040;-51
2023/04/13 03:04:01;;;;;;;0.35;0.10;;;5.70;99.90;;;;;;5075491;28;20076;-50
2023/04/13 03:06:30;;;;;;;0.10;0.08;;;5.70;99.90;;;;;;5075508;28;20044;-50
2023/04/13 03:09:00;;;;;;;0.13;0.10;;;5.70;99.90;;;;;;5069302;28;20079;-52
2023/04/13 03:11:33;;;;;;;0.10;0.10;;;5.80;99.90;;;;;;5061851;28;20143;-51
2023/04/13 03:14:11;;;;;;;0.32;0.10;;;5.80;99.90;;;;;;5059392;28;20615;-50
2023/04/13 03:16:39;;;;;;;0.20;0.10;;;5.80;99.90;;;;;;5072324;28;20037;-51
2023/04/13 03:19:07;;;;;;;0.28;0.10;;;5.80;99.90;;;;;;5090766;28;20075;-50
2023/04/13 03:21:36;;;;;;;0.35;0.20;;;5.80;99.90;;;;;;5072080;28;20119;-51
2023/04/13 03:24:08;;;;;;;0.63;0.00;;;5.70;99.90;;;;;;5090879;28;20044;-50
2023/04/13 03:26:36;;;;;;;0.65;0.10;;;5.70;99.90;;;;;;5074779;28;20044;-50
2023/04/13 03:29:07;;;;;;;0.65;0.20;;;5.60;99.90;;;;;;5075144;28;20048;-51
2023/04/13 03:31:39;;;;;;;0.90;0.10;;;5.60;99.90;;;;;;5083061;28;20058;-51
2023/04/13 03:34:06;;;;;;;;;;;5.60;99.90;;;;;;5075524;28;20048;-50
2023/04/13 03:36:35;;;;;;;0.08;0.00;;;5.60;99.90;;;;;;5074531;28;19935;-50
2023/04/13 03:39:04;;;;;;;1.00;0.30;;;5.60;99.90;;;;;;5074475;28;20038;-52
2023/04/13 03:41:34;;;;;;;2.08;0.20;;;5.60;99.90;;;;;;5091372;28;20484;-52
2023/04/13 03:44:01;;;;;;;0.00;0.00;;;5.60;99.90;;;;;;5074898;28;20458;-51
2023/04/13 03:46:30;;;;;;;0.30;0.10;;;5.60;99.90;;;;;;5083534;28;20082;-51
2023/04/13 03:49:01;;;;;;;0.28;0.20;;;5.60;99.90;;;;;;5074171;28;20505;-50
2023/04/13 03:51:27;;;;;;;0.32;0.10;;;5.50;99.90;;;;;;5092076;28;20078;-50
2023/04/13 03:53:54;;;;;;;0.10;0.10;;;5.60;99.90;;;;;;5074983;28;20442;-51
2023/04/13 03:56:25;;;;;;;0.10;0.10;;;5.60;99.90;;;;;;5068230;28;20041;-50
2023/04/13 03:58:55;;;;;;;0.40;0.17;;;5.60;99.90;;;;;;5070721;28;20040;-51
2023/04/13 04:01:25;;;;;;;1.63;0.10;;;5.50;99.90;;;;;;5074191;28;20539;-50
2023/04/13 04:03:55;;;;;;;1.17;0.00;;;5.50;99.90;;;;;;5072895;28;20097;-50
2023/04/13 04:06:28;;;;;;;0.47;0.20;;;5.50;99.90;;;;;;5058420;28;20129;-51
2023/04/13 04:09:08;;;;;;;0.40;0.20;;;5.60;99.90;;;;;;5074046;28;20459;-51
2023/04/13 04:11:40;;;;;;;0.32;0.10;;;5.60;99.90;;;;;;5074745;28;20052;-51
2023/04/13 04:14:08;;;;;;;2.67;0.60;;;5.60;99.90;;;;;;5072481;28;20043;-51
2023/04/13 04:16:36;;;;;;;1.92;0.40;;;5.60;99.90;;;;;;5074401;28;20054;-51
2023/04/13 04:19:08;;;;;;;0.82;0.60;;;5.60;99.90;;;;;;5072942;28;20040;-50
2023/04/13 04:21:35;;;;;;;3.40;0.55;;;5.60;99.90;;;;;;5073203;28;20094;-50
2023/04/13 04:24:07;;;;;;;0.95;0.60;;;5.50;99.90;;;;;;5072876;28;20052;-50
2023/04/13 04:26:36;;;;;;;1.58;0.47;;;5.60;99.90;;;;;;5091749;28;20043;-52
2023/04/13 04:29:07;;;;;;;0.60;0.40;;;5.60;99.90;;;;;;5053628;28;20048;-50
2023/04/13 04:31:42;;;;;;;0.40;0.40;;;5.50;99.90;;;;;;5064775;28;20051;-51
2023/04/13 04:34:12;;;;;;;0.57;0.30;;;5.50;99.90;;;;;;5070886;28;20494;-53
2023/04/13 04:36:44;;;;;;;0.50;0.30;;;5.50;99.90;;;;;;5071902;28;20029;-53
2023/04/13 04:39:13;;;;;;;0.55;0.32;;;5.40;99.90;;;;;;5070346;28;20147;-51
2023/04/13 04:41:48;;;;;;;4.63;1.00;;;5.40;99.90;;;;;;5073205;28;20563;-50
2023/04/13 04:44:17;;;;;;;3.20;0.63;;;5.30;99.90;;;;;;5071150;28;20040;-51
2023/04/13 04:46:44;;;;;;;0.47;0.32;;;5.30;99.90;;;;;;5069675;28;20045;-51
2023/04/13 04:49:13;;;;;;;0.38;0.28;;;5.40;99.90;;;;;;5070118;28;20036;-51
2023/04/13 04:51:40;;;;;;;0.90;0.30;;;5.40;99.90;;;;;;5072523;28;20500;-51
2023/04/13 04:54:10;;;;;;;2.28;0.13;;;5.50;99.90;;;;;;5083474;28;20040;-51
2023/04/13 04:56:37;;;;;;;;;;;5.50;99.90;;;;;;5090820;28;20054;-50
2023/04/13 04:59:04;;;;;;;0.75;0.30;;;5.40;99.90;;;;;;5070758;28;19924;-50
2023/04/13 05:01:41;;;;;;;1.17;0.30;;;5.50;99.90;;;;;;5072102;28;20112;-52
2023/04/13 05:04:11;;;;;;;0.57;0.30;;;5.30;99.90;;;;;;5072858;28;20144;-50
2023/04/13 05:06:41;;;;;;;2.72;0.40;;;5.30;99.90;;;;;;5072729;28;20048;-51
2023/04/13 05:09:13;;;;;;;2.72;0.30;;;5.30;99.90;;;;;;5071994;28;20054;-51
2023/04/13 05:11:46;;;;;;;1.65;0.70;;;5.30;99.90;;;;;;5069222;28;20054;-52
2023/04/13 05:14:14;;;;;;;0.77;0.32;;;5.20;99.90;;;;;;5071632;28;20043;-50
2023/04/13 05:16:41;;;;;;;0.65;0.30;;;5.30;99.90;;;;;;5073127;28;20048;-50
2023/04/13 05:19:22;;;;;;;0.20;0.20;;;5.30;99.90;;;;;;5067613;28;20048;-53
2023/04/13 05:21:51;;;;;;;1.38;0.40;;;5.40;99.90;;;;;;5061826;28;20115;-50
2023/04/13 05:24:19;;;;;;;0.43;0.40;;;5.40;99.90;;;;;;5079767;28;20093;-50
2023/04/13 05:26:47;;;;;;;0.57;0.40;;;5.40;99.90;;;;;;5070619;28;20468;-51
2023/04/13 05:29:20;;;;;;;2.38;0.43;;;5.30;99.90;;;;;;5071085;28;20152;-50
2023/04/13 05:31:47;;;;;;;1.90;0.52;;;5.40;99.90;;;;;;5072968;28;20047;-50
2023/04/13 05:34:15;;;;;;;;;;;5.50;99.90;;;;;;5068600;28;20048;-50
2023/04/13 05:36:56;;;;;;;0.85;0.45;;;5.50;99.90;;;;;;5064506;28;20350;-51
2023/04/13 05:39:23;;;;;;;2.78;1.30;;;5.60;99.90;;;;;;5051151;28;20072;-51
2023/04/13 05:41:50;;;;;;;2.95;1.05;;;5.60;99.90;;;;;;5073372;28;20054;-50
2023/04/13 05:44:18;;;;;;;7.00;2.92;;;5.60;99.90;;;;;;5090050;28;20040;-50
2023/04/13 05:46:52;;;;;;;2.47;1.10;;;5.60;99.90;;;;;;5088609;28;20044;-50
2023/04/13 05:49:18;;;;;;;4.70;1.40;;;5.60;99.90;;;;;;5071010;28;20039;-50
2023/04/13 05:51:47;;;;;;;2.58;0.98;;;5.60;99.90;;;;;;5067580;28;20101;-50
2023/04/13 05:54:16;;;;;;;1.55;0.90;;;5.70;99.90;;;;;;5072118;28;20051;-51
2023/04/13 05:56:46;;;;;;;6.18;2.33;;;5.70;99.90;;;;;;5071706;28;20082;-52
2023/04/13 05:59:14;;;;;;;2.35;1.05;;;5.70;99.90;;;;;;5070636;28;20054;-49
2023/04/13 06:01:41;;;;;;;3.20;1.73;;;5.70;99.90;;;;;;5071774;28;20397;-50
2023/04/13 06:04:10;;;;;;;7.60;1.98;;;5.70;99.90;;;;;;5071588;28;20055;-50
2023/04/13 06:06:37;;;;;;;7.07;2.55;;;5.70;99.90;;;;;;5070561;28;20523;-50
2023/04/13 06:09:05;;;;;;;3.92;1.77;;;5.80;99.90;;;;;;5072077;28;20484;-50
2023/04/13 06:11:32;;;;;;;4.25;1.88;;;5.70;99.90;;;;;;5072652;28;20040;-50
2023/04/13 06:13:58;;;;;;;4.35;1.50;;;5.70;99.90;;;;;;5072959;28;20134;-50
2023/04/13 06:16:26;;;;;;;3.50;0.75;;;5.70;99.90;;;;;;5070609;28;20097;-53
2023/04/13 06:18:53;;;;;;;1.73;0.60;;;5.70;99.90;;;;;;5072210;28;20123;-50
2023/04/13 06:21:20;;;;;;;1.42;0.93;;;5.70;99.90;;;;;;5072296;28;20052;-50
2023/04/13 06:23:48;;;;;;;4.40;1.10;;;5.80;99.90;;;;;;5072197;28;20050;-53
2023/04/13 06:26:27;;;;;;;2.50;0.90;;;5.70;99.90;;;;;;5071620;28;20051;-49
2023/04/13 06:28:55;;;;;;;1.35;0.73;;;5.70;99.90;;;;;;5071773;28;20139;-53
2023/04/13 06:31:26;;;;;;;3.92;1.90;;;5.70;99.90;;;;;;5072629;28;20063;-49
2023/04/13 06:33:55;;;;;;;1.63;0.90;;;5.80;99.90;;;;;;5063852;28;20044;-52
2023/04/13 06:36:26;;;;;;;0.93;0.65;;;5.80;99.90;;;;;;5072620;28;20036;-50
2023/04/13 06:38:55;;;;;;;1.73;0.93;;;5.90;99.90;;;;;;5072034;28;20044;-50
2023/04/13 06:41:22;;;;;;;2.17;0.80;;;5.90;99.90;;;;;;5073355;28;20040;-50
2023/04/13 06:43:50;;;;;;;1.10;0.40;;;6.00;99.90;;;;;;5074690;28;20423;-50
2023/04/13 06:46:31;;;;;;;1.67;1.10;;;5.90;99.90;;;;;;5069736;28;20056;-50
2023/04/13 06:49:05;;;;;;;2.47;1.00;;;6.00;99.90;;;;;;5075665;28;20052;-50
2023/04/13 06:51:32;;;;;;;;;;;6.10;99.90;;;;;;5075442;28;20500;-50
2023/04/13 06:54:00;;;;;;;3.28;0.95;;;6.10;99.90;;;;;;5091980;28;19969;-51
2023/04/13 06:56:26;;;;;;;7.35;2.60;;;6.20;99.90;;;;;;5075763;28;20090;-50
2023/04/13 06:58:57;;;;;;;1.05;0.60;;;6.20;99.90;;;;;;5073620;28;20039;-54
2023/04/13 07:01:28;;;;;;;1.52;1.10;;;6.30;99.90;;;;;;5072448;28;20409;-49
2023/04/13 07:03:56;;;;;;;1.08;0.73;;;6.30;99.90;;;;;;5071653;28;20390;-50
2023/04/13 07:06:23;;;;;;;;;;;6.30;99.90;;;;;;5072788;28;20520;-53
2023/04/13 07:08:51;;;;;;;0.88;0.70;;;6.40;99.90;;;;;;5072944;28;19927;-53
2023/04/13 07:11:18;;;;;;;1.52;0.82;;;6.50;99.90;;;;;;5076001;28;20040;-52
2023/04/13 07:13:46;;;;;;;3.85;0.60;;;6.50;99.90;;;;;;5075434;28;20510;-50
2023/04/13 07:16:13;;;;;;;2.20;0.50;;;6.30;99.90;;;;;;5070501;28;20048;-51
2023/04/13 07:18:43;;;;;;;1.63;0.60;;;6.20;99.90;;;;;;5070375;28;20036;-50
2023/04/13 07:21:10;;;;;;;0.85;0.30;;;6.20;99.90;;;;;;5093105;28;20051;-51
2023/04/13 07:23:52;;;;;;;1.80;0.80;;;6.10;99.90;;;;;;5073416;28;20131;-52
2023/04/13 07:26:19;;;;;;;1.77;0.50;;;6.20;99.90;;;;;;5073306;28;20089;-50
2023/04/13 07:28:46;;;;;;;0.85;0.50;;;6.20;99.90;;;;;;5067271;28;20044;-49
2023/04/13 07:31:13;;;;;;;1.10;0.80;;;6.20;99.90;;;;;;5083289;28;20547;-53
2023/04/13 07:33:43;;;;;;;0.88;0.55;;;6.40;99.90;;;;;;5067540;28;20066;-51
2023/04/13 07:36:12;;;;;;;1.17;0.60;;;6.50;99.90;;;;;;5074227;28;20040;-52
2023/04/13 07:38:41;;;;;;;3.05;1.02;;;6.60;99.90;;;;;;5074588;28;20043;-50
2023/04/13 07:41:13;;;;;;;2.17;1.50;;;6.80;99.90;;;;;;5075017;28;20054;-50
2023/04/13 07:43:40;;;;;;;;;;;7.00;99.90;;;;;;5073267;28;20493;-50
2023/04/13 07:46:11;;;;;;;1.77;0.73;;;6.90;99.90;;;;;;5074633;28;20156;-51
2023/04/13 07:48:40;;;;;;;2.45;0.68;;;7.10;99.90;;;;;;5074323;28;20048;-51
2023/04/13 07:51:19;;;;;;;2.80;1.02;;;7.40;99.90;;;;;;5074915;28;20052;-50
2023/04/13 07:53:51;;;;;;;2.85;1.15;;;7.40;99.90;;;;;;5072259;28;20062;-50
2023/04/13 07:56:18;;;;;;;3.92;0.98;;;7.80;99.90;;;;;;5074895;28;20040;-52
2023/04/13 07:58:45;;;;;;;5.35;1.42;;;8.00;99.90;;;;;;5074054;28;20093;-52
2023/04/13 08:01:12;;;;;;;1.13;0.52;;;8.30;99.90;;;;;;5072792;28;20052;-50
2023/04/13 08:03:38;;;;;;;4.53;0.43;;;8.40;99.90;;;;;;5092867;28;20222;-51
2023/04/13 08:06:13;;;;;;;1.90;0.50;;;8.50;99.90;;;;;;5074391;28;20525;-51
2023/04/13 08:08:39;;;;;;;1.40;0.80;;;8.70;99.90;;;;;;5092160;28;20085;-51
2023/04/13 08:11:07;;;;;;;0.93;0.32;;;8.80;99.90;;;;;;5072958;28;20044;-50
2023/04/13 08:13:34;;;;;;;1.85;0.85;;;8.90;99.90;;;;;;5074321;28;20036;-50
2023/04/13 08:16:01;;;;;;;0.60;0.40;;;9.00;99.90;;;;;;5074177;28;20052;-50
2023/04/13 08:18:31;;;;;;;0.70;0.40;;;9.10;99.90;;;;;;5092077;22;20052;-51
2023/04/13 08:20:58;;;;;;;1.52;0.47;;;9.00;99.90;;;;;;5092761;28;20040;-51
2023/04/13 08:23:28;;;;;;;5.25;1.90;;;9.10;99.90;;;;;;5074263;28;20055;-48
2023/04/13 08:26:01;;;;;;;1.20;0.40;;;9.30;99.90;;;;;;5077570;28;20439;-51
2023/04/13 08:28:28;;;;;;;1.92;0.28;;;9.70;99.90;;;;;;5089016;28;20146;-48
2023/04/13 08:30:57;;;;;;;1.30;0.60;;;9.20;99.90;;;;;;5094238;28;20040;-50
2023/04/13 08:33:24;;;;;;;1.02;0.60;;;9.20;99.90;;;;;;5077801;28;20039;-48
2023/04/13 08:35:51;;;;;;;0.30;0.20;;;9.40;99.90;;;;;;5094288;28;20047;-50
2023/04/13 08:38:18;;;;;;;0.40;0.20;;;9.50;99.90;;;;;;5093248;28;20401;-48
2023/04/13 08:40:48;;;;;;;0.45;0.20;;;9.40;99.90;;;;;;5094377;28;20042;-50
2023/04/13 08:43:22;;;;;;;8.60;0.38;;;9.40;99.90;;;;;;5090566;28;20048;-52
2023/04/13 08:45:49;;;;;;;0.20;0.20;;;9.20;99.90;;;;;;5095999;28;20522;-50
2023/04/13 08:48:18;;;;;;;;;;;8.90;99.90;;;;;;5073190;28;20047;-50
2023/04/13 08:50:48;;;;;;;0.75;0.20;;;8.60;99.90;;;;;;5075055;28;20018;-54
2023/04/13 08:53:16;;;;;;;1.17;0.32;;;8.30;99.90;;;;;;5097061;28;20036;-48
2023/04/13 08:55:44;;;;;;;0.50;0.20;;;8.60;99.90;;;;;;5089228;28;20039;-51
2023/04/13 08:58:14;;;;;;;0.30;0.30;;;8.70;99.90;;;;;;5091846;28;20167;-48
2023/04/13 09:00:42;;;;;;;0.32;0.20;;;9.00;99.90;;;;;;5061955;28;20086;-50
2023/04/13 09:03:12;;;;;;;2.60;0.30;;;9.40;99.90;;;;;;5072392;28;20040;-48
2023/04/13 09:05:46;;;;;;;4.25;0.40;;;9.70;99.90;;;;;;5090287;28;20071;-49
2023/04/13 09:08:13;;;;;;;1.55;0.40;;;10.00;99.90;;;;;;5081191;28;20078;-50
2023/04/13 09:10:43;;;;;;;0.85;0.50;;;9.70;99.90;;;;;;5110234;28;20070;-48
2023/04/13 09:13:10;;;;;;;1.83;0.73;;;9.90;99.90;;;;;;5111153;28;20063;-50
2023/04/13 09:15:37;;;;;;;1.42;0.40;;;10.10;99.90;;;;;;5109469;28;20056;-48
2023/04/13 09:18:18;;;;;;;1.85;0.35;;;10.40;99.90;;;;;;5072831;28;20048;-48
2023/04/13 09:21:00;;;;;;;0.30;0.20;;;10.70;99.90;;;;;;5073011;28;20133;-48
2023/04/13 09:23:27;;;;;;;0.63;0.20;;;11.00;99.90;;;;;;5091475;28;20047;-50
2023/04/13 09:26:07;;;;;;;2.90;0.38;;;11.30;99.90;;;;;;5104318;28;20067;-50
2023/04/13 09:28:48;;;;;;;0.40;0.20;;;10.90;99.90;;;;;;5090873;28;20097;-49
2023/04/13 09:31:15;;;;;;;0.57;0.43;;;10.70;99.90;;;;;;5090957;28;20488;-49
2023/04/13 09:33:44;;;;;;;0.22;0.10;;;10.40;99.90;;;;;;5091490;28;20438;-51
2023/04/13 09:36:13;;;;;;;1.17;0.30;;;10.50;99.90;;;;;;5094902;28;20101;-51
2023/04/13 09:38:41;;;;;;;0.30;0.20;;;10.50;99.90;;;;;;5090548;28;20051;-50
2023/04/13 09:41:08;;;;;;;0.85;0.30;;;10.90;99.90;;;;;;5091110;28;20040;-49
2023/04/13 09:43:38;;;;;;;0.38;0.25;;;10.50;99.90;;;;;;5100993;28;20075;-49
2023/04/13 09:46:12;;;;;;;1.00;0.20;;;10.80;99.90;;;;;;5092721;28;20566;-49
2023/04/13 09:48:58;;;;;;;0.65;0.20;;;11.00;99.90;;;;;;5089488;28;20048;-49
2023/04/13 09:51:26;;;;;;;0.15;0.15;;;11.50;99.90;;;;;;5091589;28;20102;-49
2023/04/13 09:56:58;;;;;;;0.57;0.30;;;11.80;99.90;;;;;;5090940;28;20117;-49
2023/04/13 09:59:26;;;;;;;1.08;0.28;;;11.90;99.90;;;;;;5096833;28;20097;-48
2023/04/13 10:01:53;;;;;;;0.55;0.20;;;11.90;99.90;;;;;;5091131;28;20066;-50
2023/04/13 10:04:20;;;;;;;1.15;0.25;;;11.60;99.90;;;;;;5090096;28;20052;-49
2023/04/13 10:06:47;;;;;;;1.70;0.40;;;11.40;99.90;;;;;;5091117;28;20067;-52
2023/04/13 10:09:14;;;;;;;0.38;0.20;;;11.40;99.90;;;;;;5097564;28;20077;-51
2023/04/13 10:11:48;;;;;;;1.95;0.35;;;11.40;99.90;;;;;;5090434;28;20044;-50
2023/04/13 10:14:20;;;;;;;0.68;0.20;;;11.20;99.90;;;;;;5091246;28;20098;-52
2023/04/13 10:17:20;;;;;;;2.72;0.73;;;11.70;99.90;;;;;;5084018;28;20085;-48
2023/04/13 10:19:52;;;;;;;2.35;0.50;;;12.00;98.20;;;;;;5102273;28;20380;-49
2023/04/13 10:22:21;;;;;;;1.67;0.28;;;12.10;99.30;;;;;;5114728;28;20069;-48
2023/04/13 10:24:51;;;;;;;2.75;1.27;;;12.00;99.10;;;;;;5114212;28;20555;-50
2023/04/13 10:27:20;;;;;;;1.83;0.40;;;11.90;99.70;;;;;;5106061;28;20043;-51
2023/04/13 10:29:47;;;;;;;1.10;0.75;;;11.60;99.30;;;;;;5097975;28;20101;-49
2023/04/13 10:32:21;;;;;;;2.40;0.40;;;11.60;99.90;;;;;;5094486;28;20072;-48
2023/04/13 10:34:48;;;;;;;2.42;1.05;;;11.30;99.60;;;;;;5103544;28;20446;-53
2023/04/13 10:37:21;;;;;;;1.85;0.55;;;11.20;99.90;;;;;;5106150;28;20036;-50
2023/04/13 10:39:59;;;;;;;1.60;0.45;;;11.20;99.90;;;;;;5098302;28;20094;-51
2023/04/13 10:42:26;;;;;;;0.20;0.20;;;11.20;99.90;;;;;;5094642;28;20489;-51
2023/04/13 10:44:54;;;;;;;1.08;0.45;;;11.20;99.60;;;;;;5104237;28;20075;-48
2023/04/13 10:47:21;;;;;;;1.80;0.45;;;11.30;99.90;;;;;;5093980;28;20456;-51
2023/04/13 10:49:51;;;;;;;0.30;0.20;;;11.10;99.90;;;;;;5093388;28;20052;-49
2023/04/13 10:52:17;;;;;;;1.05;0.30;;;10.90;99.90;;;;;;5094331;28;20048;-50
2023/04/13 10:54:44;;;;;;;2.88;0.88;;;10.70;99.90;;;;;;5094035;28;20362;-48
2023/04/13 10:57:11;;;;;;;4.03;0.85;;;10.00;99.90;;;;;;5094006;28;20532;-48
2023/04/13 10:59:52;;;;;;;0.90;0.30;;;9.80;99.90;;;;;;5093031;28;20055;-49
2023/04/13 11:02:28;;;;;;;1.67;0.40;;;9.70;99.90;;;;;;5097746;28;20111;-50
2023/04/13 11:04:56;;;;;;;0.50;0.40;;;9.40;99.90;;;;;;5111310;28;20046;-50
2023/04/13 11:07:27;;;;;;;1.98;0.45;;;9.20;99.90;;;;;;5114136;28;20460;-49
2023/04/13 11:09:57;;;;;;;2.13;0.30;;;9.10;99.90;;;;;;5113865;28;20043;-51
2023/04/13 11:12:27;;;;;;;3.30;0.30;;;9.20;99.90;;;;;;5103328;28;20491;-49
2023/04/13 11:14:54;;;;;;;1.33;0.30;;;9.00;99.90;;;;;;5114065;28;20500;-50
2023/04/13 11:17:20;;;;;;;1.45;0.30;;;8.80;99.90;;;;;;5113850;28;20376;-50
2023/04/13 11:19:55;;;;;;;1.85;0.38;;;8.60;99.90;;;;;;5112081;28;20044;-48
2023/04/13 11:22:24;;;;;;;0.22;0.20;;;8.50;99.90;;;;;;5093654;28;20036;-49
2023/04/13 11:24:51;;;;;;;1.77;0.40;;;8.60;99.90;;;;;;5093185;28;20048;-51
2023/04/13 11:27:27;;;;;;;0.52;0.30;;;8.60;99.90;;;;;;5092497;28;20052;-49
2023/04/13 11:30:05;;;;;;;1.08;0.28;;;8.50;99.90;;;;;;5098295;28;20079;-49
2023/04/13 11:32:33;;;;;;;0.98;0.35;;;8.30;99.90;;;;;;5103031;28;20084;-49
2023/04/13 11:35:09;;;;;;;2.03;0.32;;;8.30;99.90;;;;;;5095231;28;20081;-49
2023/04/13 11:37:38;;;;;;;0.85;0.22;;;8.10;99.90;;;;;;5101389;28;20051;-49
2023/04/13 11:40:12;;;;;;;0.85;0.20;;;7.80;99.90;;;;;;5095562;28;20046;-49
2023/04/13 11:42:41;;;;;;;4.47;2.08;;;7.70;99.90;;;;;;5092940;28;20051;-49
2023/04/13 11:45:09;;;;;;;3.88;1.35;;;7.90;99.90;;;;;;5093063;28;20044;-48
2023/04/13 11:47:36;;;;;;;1.58;0.52;;;8.00;99.90;;;;;;5092787;28;20571;-49
2023/04/13 11:50:04;;;;;;;5.22;1.48;;;8.00;99.90;;;;;;5092417;28;20036;-49
2023/04/13 11:52:32;;;;;;;4.47;1.60;;;7.80;99.90;;;;;;5094065;28;20071;-48
2023/04/13 11:55:02;;;;;;;4.65;1.30;;;7.60;99.90;;;;;;5092850;28;20028;-48
2023/04/13 11:57:48;;;;;;;2.72;1.33;;;7.20;99.90;;;;;;5092764;28;20040;-49
2023/04/13 12:00:20;;;;;;;;;;;7.10;99.90;;;;;;5093011;28;20319;-48
2023/04/13 12:02:49;;;;;;;3.42;1.30;;;7.10;99.90;;;;;;5093737;28;19920;-48
2023/04/13 12:05:30;;;;;;;3.47;1.10;;;7.00;99.90;;;;;;5092658;28;20043;-49
2023/04/13 12:07:58;;;;;;;2.55;1.25;;;7.00;99.90;;;;;;5092662;28;20063;-48
2023/04/13 12:10:33;;;;;;;4.60;1.40;;;6.90;99.90;;;;;;5095111;28;20097;-50
2023/04/13 12:13:12;;;;;;;1.65;0.63;;;6.90;99.90;;;;;;5092451;28;20059;-49
2023/04/13 12:15:46;;;;;;;5.28;1.77;;;6.90;99.90;;;;;;5092163;28;20044;-48
2023/04/13 12:18:41;;;;;;;4.95;1.20;;;6.80;99.90;;;;;;5092578;28;20047;-49
2023/04/13 12:21:14;;;;;;;0.73;0.50;;;6.80;99.90;;;;;;5093332;28;20050;-49
2023/04/13 12:23:56;;;;;;;1.00;0.70;;;6.60;99.90;;;;;;5092134;28;20085;-49
2023/04/13 12:26:36;;;;;;;1.27;0.50;;;6.70;99.90;;;;;;5092635;28;20048;-50
2023/04/13 12:29:07;;;;;;;4.20;0.80;;;6.70;99.90;;;;;;5094680;28;20405;-49
2023/04/13 12:31:35;;;;;;;1.38;0.75;;;6.70;99.90;;;;;;5092285;28;20040;-49
2023/04/13 12:34:04;;;;;;;1.35;0.80;;;6.80;99.90;;;;;;5091727;28;20043;-48
2023/04/13 12:36:32;;;;;;;2.05;1.00;;;6.80;99.90;;;;;;5100648;28;20044;-48
2023/04/13 12:38:59;;;;;;;1.35;0.95;;;6.90;99.90;;;;;;5093108;28;20044;-48
2023/04/13 12:41:26;;;;;;;1.13;0.65;;;6.80;99.90;;;;;;5092733;28;20113;-48
2023/04/13 12:43:53;;;;;;;1.23;0.38;;;6.50;99.90;;;;;;5091939;28;20032;-48
2023/04/13 12:46:20;;;;;;;1.02;0.50;;;6.40;99.90;;;;;;5098128;28;20161;-48
2023/04/13 12:48:47;;;;;;;3.17;0.93;;;6.40;99.90;;;;;;5091579;28;20051;-48
2023/04/13 12:51:14;;;;;;;1.85;0.60;;;6.30;99.90;;;;;;5091557;28;20047;-49
2023/04/13 12:53:41;;;;;;;2.40;0.60;;;6.30;99.90;;;;;;5092264;28;20048;-48
2023/04/13 12:56:07;;;;;;;1.58;0.40;;;6.50;99.90;;;;;;5097549;28;20093;-48
2023/04/13 12:58:34;;;;;;;1.65;0.45;;;6.60;99.90;;;;;;5111540;28;20044;-49
2023/04/13 13:01:01;;;;;;;2.88;0.77;;;6.70;99.90;;;;;;5111714;28;20119;-50
2023/04/13 13:03:29;;;;;;;3.05;0.45;;;6.70;99.90;;;;;;5109104;28;20081;-48
2023/04/13 13:05:56;;;;;;;;;;;6.80;99.90;;;;;;5094836;28;20489;-49
2023/04/13 13:08:23;;;;;;;0.40;0.40;;;6.90;99.90;;;;;;5090684;28;19946;-48
2023/04/13 13:10:49;;;;;;;0.43;0.20;;;6.60;99.90;;;;;;5073310;28;20036;-48
2023/04/13 13:13:17;;;;;;;1.55;0.60;;;6.40;99.90;;;;;;5099279;28;20084;-49
2023/04/13 13:15:44;;;;;;;3.92;0.73;;;6.50;99.90;;;;;;5095879;28;20097;-48